Utah State University
, Logan
Last Weather Update:03/29/2012 1:00:00 PM
Date
ETo
ETc
Rain
Irrigation
Req
Temp
Max
Temp
Min
Temp
Avg
Avg RH
Avg Wind
Avg Solar
inches
inches
incehs
inches
F
F
F
%
%
watts/m2
02/01/2012 0.04" 0.00" 0.00" 0.00" 44.2° 26.3° 33.5° 65.1% 4.0 MPH 82.4w/m2
02/02/2012 0.02" 0.00" 0.00" 0.00" 38.3° 29.8° 33.1° 82.9% 0.9 MPH 55.3w/m2
02/03/2012 0.05" 0.00" 0.01" -0.01" 37.9° 25.7° 32.6° 62.7% 5.4 MPH 104.6w/m2
02/04/2012 0.06" 0.00" 0.00" 0.00" 40.5° 25.8° 32.5° 47.5% 5.3 MPH 111.3w/m2
02/05/2012 0.04" 0.00" 0.00" 0.00" 36.8° 23.2° 29.0° 58.3% 3.3 MPH 97.5w/m2
02/06/2012 0.05" 0.00" 0.00" 0.00" 39.3° 18.9° 28.4° 55.3% 3.8 MPH 125.2w/m2
02/07/2012 0.06" 0.00" 0.00" 0.00" 41.4° 24.0° 31.5° 46.0% 6.2 MPH 126.5w/m2
02/08/2012 0.03" 0.00" 0.03" -0.02" 38.7° 25.8° 31.8° 68.6% 2.2 MPH 47.5w/m2
02/09/2012 0.01" 0.00" 0.00" 0.00" 38.1° 31.9° 34.9° 89.2% 0.5 MPH 21.0w/m2
02/10/2012 0.03" 0.00" 0.02" -0.02" 47.0° 33.2° 37.7° 82.0% 1.1 MPH 39.4w/m2
02/11/2012 0.05" 0.00" 0.00" 0.00" 45.2° 34.0° 38.9° 70.5% 3.6 MPH 69.5w/m2
02/12/2012 0.01" 0.00" 0.00" 0.00" 39.7° 32.5° 35.7° 87.5% 0.8 MPH 20.2w/m2
02/13/2012 0.04" 0.00" 0.05" -0.04" 44.4° 31.4° 35.3° 79.9% 1.3 MPH 98.2w/m2
02/14/2012 0.04" 0.00" 0.02" -0.02" 40.4° 24.4° 32.3° 66.1% 3.0 MPH 93.3w/m2
02/15/2012 0.03" 0.00" 0.15" -0.12" 39.8° 28.6° 32.4° 86.3% 1.1 MPH 84.0w/m2
02/16/2012 0.05" 0.00" 0.00" 0.00" 40.0° 18.5° 28.2° 63.4% 1.1 MPH 148.7w/m2
02/17/2012 0.03" 0.00" 0.00" 0.00" 40.6° 22.5° 30.1° 61.6% 2.7 MPH 70.9w/m2
02/18/2012 0.05" 0.00" 0.09" -0.07" 43.9° 23.1° 32.0° 66.5% 4.7 MPH 102.0w/m2
02/19/2012 0.03" 0.00" 0.25" -0.20" 33.0° 19.8° 27.3° 83.6% 0.5 MPH 83.2w/m2
02/20/2012 0.05" 0.00" 0.00" 0.00" 34.2° 14.7° 26.1° 63.9% 3.2 MPH 127.4w/m2
02/21/2012 0.04" 0.00" 0.03" -0.02" 42.3° 32.1° 36.6° 75.0% 4.9 MPH 59.0w/m2
02/22/2012 0.04" 0.00" 0.01" -0.01" 50.4° 39.4° 45.1° 62.5% 3.2 MPH 19.7w/m2
02/23/2012 0.05" 0.00" 0.00" 0.00" 39.6° 27.3° 32.6° 49.9% 1.4 MPH 103.1w/m2
02/24/2012 0.07" 0.00" 0.00" 0.00" 42.3° 22.8° 32.5° 48.5% 2.8 MPH 171.2w/m2
02/25/2012 0.04" 0.00" 0.00" 0.00" 37.6° 22.8° 29.6° 52.5% 4.7 MPH 55.0w/m2
02/26/2012 0.06" 0.00" 0.00" 0.00" 33.9° 23.9° 27.7° 46.2% 3.0 MPH 143.5w/m2
02/27/2012 0.04" 0.00" 0.00" 0.00" 44.5° 22.6° 31.9° 55.4% 1.8 MPH 72.7w/m2
02/28/2012 0.03" 0.00" 0.09" -0.07" 35.6° 25.2° 30.3° 80.9% 0.7 MPH 70.4w/m2
02/29/2012 0.04" 0.00" 0.16" -0.13" 43.7° 21.3° 31.5° 72.9% 3.0 MPH 72.2w/m2
Totals: 1.18" 0.00" 0.91" -0.73" 50.4° 14.7° 32.5° 66.6% 2.8 MPH 85.3w/m2